createdAt,value
2019-03-16T00:00:09.101Z,10.88
2019-03-16T00:01:09.026Z,10.88
2019-03-16T00:02:09.033Z,10.89
2019-03-16T00:03:09.014Z,10.88
2019-03-16T00:04:09.056Z,10.86
2019-03-16T00:05:09.054Z,10.88
2019-03-16T00:06:08.988Z,10.86
2019-03-16T00:07:08.990Z,10.85
2019-03-16T00:08:09.028Z,10.87
2019-03-16T00:09:09.167Z,10.84
2019-03-16T00:10:09.027Z,10.85
2019-03-16T00:11:09.073Z,10.86
2019-03-16T00:12:09.022Z,10.84
2019-03-16T00:13:09.026Z,10.84
2019-03-16T00:14:08.979Z,10.85
2019-03-16T00:15:08.991Z,10.84
2019-03-16T00:16:08.988Z,10.83
2019-03-16T00:17:10.158Z,10.84
2019-03-16T00:18:08.995Z,10.84
2019-03-16T00:19:08.986Z,10.84
2019-03-16T00:20:09.019Z,10.84
2019-03-16T00:21:09.034Z,10.85
2019-03-16T00:22:09.013Z,10.86
2019-03-16T00:23:08.980Z,10.84
2019-03-16T00:24:08.981Z,10.85
2019-03-16T00:25:08.989Z,10.85
2019-03-16T00:26:08.968Z,10.84
2019-03-16T00:27:08.997Z,10.84
2019-03-16T00:28:08.979Z,10.84
2019-03-16T00:29:08.975Z,10.84
2019-03-16T00:30:08.980Z,10.84
2019-03-16T00:31:09.023Z,10.84
2019-03-16T00:32:14.126Z,10.84
2019-03-16T00:33:08.959Z,10.84
2019-03-16T00:34:08.944Z,10.85
2019-03-16T00:35:08.947Z,10.84
2019-03-16T00:36:08.937Z,10.84
2019-03-16T00:37:08.960Z,10.84
2019-03-16T00:38:08.966Z,10.84
2019-03-16T00:39:09.193Z,10.86
2019-03-16T00:40:08.973Z,10.84
2019-03-16T00:41:08.990Z,10.84
2019-03-16T00:42:08.936Z,10.83
2019-03-16T00:43:08.952Z,10.83
2019-03-16T00:44:08.943Z,10.82
2019-03-16T00:45:08.937Z,10.82
2019-03-16T00:46:08.933Z,10.8
2019-03-16T00:47:08.919Z,10.8
2019-03-16T00:48:08.979Z,10.8
2019-03-16T00:49:08.970Z,10.8
2019-03-16T00:50:08.939Z,10.81
2019-03-16T00:51:08.936Z,10.79
2019-03-16T00:52:08.927Z,10.81
2019-03-16T00:53:08.946Z,10.8
2019-03-16T00:54:08.942Z,10.81
2019-03-16T00:55:08.955Z,10.79
2019-03-16T00:56:08.980Z,10.78
2019-03-16T00:57:08.940Z,10.78
2019-03-16T00:58:08.933Z,10.78
2019-03-16T00:59:08.947Z,10.77
2019-03-16T01:00:09.818Z,10.77
2019-03-16T01:01:09.850Z,10.77
2019-03-16T01:02:08.925Z,10.77
2019-03-16T01:03:08.931Z,10.76
2019-03-16T01:04:08.941Z,10.74
2019-03-16T01:05:08.999Z,10.76
2019-03-16T01:06:08.926Z,10.77
2019-03-16T01:07:08.906Z,10.74
2019-03-16T01:08:08.955Z,10.75
2019-03-16T01:09:09.021Z,10.72
2019-03-16T01:10:08.921Z,10.75
2019-03-16T01:11:08.961Z,10.73
2019-03-16T01:12:08.921Z,10.74
2019-03-16T01:13:08.904Z,10.72
2019-03-16T01:14:08.930Z,10.73
2019-03-16T01:15:08.906Z,10.71
2019-03-16T01:16:08.893Z,10.72
2019-03-16T01:17:08.975Z,10.72
2019-03-16T01:18:08.902Z,10.71
2019-03-16T01:19:08.887Z,10.71
2019-03-16T01:20:08.888Z,10.71
2019-03-16T01:21:08.912Z,10.72
2019-03-16T01:22:09.319Z,10.71
2019-03-16T01:23:08.961Z,10.69
2019-03-16T01:24:08.915Z,10.69
2019-03-16T01:25:08.885Z,10.67
2019-03-16T01:26:08.968Z,10.67
2019-03-16T01:27:08.892Z,10.67
2019-03-16T01:28:08.916Z,10.66
2019-03-16T01:29:08.876Z,10.65
2019-03-16T01:30:08.908Z,10.65
2019-03-16T01:31:08.891Z,10.65
2019-03-16T01:32:08.882Z,10.65
2019-03-16T01:33:08.857Z,10.65
2019-03-16T01:34:08.911Z,10.64
2019-03-16T01:35:08.879Z,10.61
2019-03-16T01:36:08.879Z,10.64
2019-03-16T01:37:08.870Z,10.63
2019-03-16T01:38:08.967Z,10.63
2019-03-16T01:39:08.879Z,10.64
2019-03-16T01:40:08.864Z,10.63
2019-03-16T01:41:08.870Z,10.6
2019-03-16T01:42:08.887Z,10.63
2019-03-16T01:43:08.936Z,10.61
2019-03-16T01:44:09.418Z,10.64
2019-03-16T01:45:08.879Z,10.63
2019-03-16T01:46:08.895Z,10.6
2019-03-16T01:47:08.874Z,10.61
2019-03-16T01:48:08.863Z,10.59
2019-03-16T01:49:08.904Z,10.6
2019-03-16T01:50:09.044Z,10.6
2019-03-16T01:51:08.858Z,10.6
2019-03-16T01:52:08.848Z,10.59
2019-03-16T01:53:08.878Z,10.59
2019-03-16T01:54:08.847Z,10.59
2019-03-16T01:55:08.870Z,10.59
2019-03-16T01:56:08.934Z,10.59
2019-03-16T01:57:08.833Z,10.59
2019-03-16T01:58:08.829Z,10.58
2019-03-16T01:59:08.830Z,10.58
2019-03-16T02:00:08.912Z,10.58
2019-03-16T02:01:08.857Z,10.57
2019-03-16T02:02:08.837Z,10.58
2019-03-16T02:03:08.815Z,10.58
2019-03-16T02:04:08.838Z,10.57
2019-03-16T02:05:08.901Z,10.58
2019-03-16T02:06:09.444Z,10.57
2019-03-16T02:07:08.822Z,10.58
2019-03-16T02:08:08.852Z,10.57
2019-03-16T02:09:08.938Z,10.57
2019-03-16T02:10:08.836Z,10.58
2019-03-16T02:11:08.823Z,10.57
2019-03-16T02:12:08.856Z,10.57
2019-03-16T02:13:08.870Z,10.57
2019-03-16T02:14:08.827Z,10.57
2019-03-16T02:15:08.851Z,10.55
2019-03-16T02:16:11.967Z,10.57
2019-03-16T02:17:08.919Z,10.57
2019-03-16T02:18:08.819Z,10.58
2019-03-16T02:19:08.807Z,10.58
2019-03-16T02:20:08.806Z,10.57
2019-03-16T02:21:09.034Z,10.58
2019-03-16T02:22:08.820Z,10.55
2019-03-16T02:23:08.797Z,10.57
2019-03-16T02:24:08.792Z,10.57
2019-03-16T02:25:08.813Z,10.55
2019-03-16T02:26:08.984Z,10.55
2019-03-16T02:27:08.893Z,10.55
2019-03-16T02:28:08.838Z,10.54
2019-03-16T02:29:08.788Z,10.55
2019-03-16T02:30:08.856Z,10.53
2019-03-16T02:31:08.931Z,10.54
2019-03-16T02:32:08.881Z,10.54
2019-03-16T02:33:14.247Z,10.54
2019-03-16T02:34:08.849Z,10.54
2019-03-16T02:35:09.012Z,10.56
2019-03-16T02:36:08.924Z,10.54
2019-03-16T02:37:08.809Z,10.54
2019-03-16T02:38:08.910Z,10.53
2019-03-16T02:39:08.811Z,10.55
2019-03-16T02:40:08.879Z,10.54
2019-03-16T02:41:08.837Z,10.53
2019-03-16T02:42:08.799Z,10.56
2019-03-16T02:43:08.856Z,10.54
2019-03-16T02:44:12.027Z,10.53
2019-03-16T02:45:08.807Z,10.53
2019-03-16T02:46:08.810Z,10.53
2019-03-16T02:47:08.786Z,10.54
2019-03-16T02:48:08.795Z,10.53
2019-03-16T02:49:09.129Z,10.53
2019-03-16T02:50:08.827Z,10.53
2019-03-16T02:51:08.812Z,10.5
2019-03-16T02:52:08.787Z,10.52
2019-03-16T02:53:08.833Z,10.52
2019-03-16T02:54:08.765Z,10.52
2019-03-16T02:55:08.796Z,10.51
2019-03-16T02:56:08.814Z,10.49
2019-03-16T02:57:08.974Z,10.52
2019-03-16T02:58:08.827Z,10.49
2019-03-16T02:59:08.775Z,10.49
2019-03-16T03:00:08.795Z,10.51
2019-03-16T03:01:08.816Z,10.49
2019-03-16T03:02:08.798Z,10.5
2019-03-16T03:03:08.799Z,10.47
2019-03-16T03:04:08.768Z,10.48
2019-03-16T03:05:08.814Z,10.48
2019-03-16T03:06:08.835Z,10.5
2019-03-16T03:07:08.798Z,10.47
2019-03-16T03:08:08.761Z,10.48
2019-03-16T03:09:08.824Z,10.47
2019-03-16T03:10:08.804Z,10.46
2019-03-16T03:11:10.724Z,10.47
2019-03-16T03:12:08.767Z,10.47
2019-03-16T03:13:14.660Z,10.46
2019-03-16T03:14:08.754Z,10.47
2019-03-16T03:15:08.793Z,10.47
2019-03-16T03:16:08.735Z,10.47
2019-03-16T03:17:08.726Z,10.46
2019-03-16T03:18:08.753Z,10.47
2019-03-16T03:19:08.777Z,10.47
2019-03-16T03:20:08.767Z,10.46
2019-03-16T03:21:08.803Z,10.46
2019-03-16T03:22:08.848Z,10.46
2019-03-16T03:23:08.747Z,10.47
2019-03-16T03:24:08.775Z,10.47
2019-03-16T03:25:09.017Z,10.47
2019-03-16T03:26:08.710Z,10.47
2019-03-16T03:27:08.765Z,10.48
2019-03-16T03:28:08.734Z,10.47
2019-03-16T03:29:08.753Z,10.47
2019-03-16T03:30:08.817Z,10.46
2019-03-16T03:31:08.830Z,10.48
2019-03-16T03:32:09.019Z,10.47
2019-03-16T03:33:09.253Z,10.46
2019-03-16T03:34:08.811Z,10.46
2019-03-16T03:35:08.886Z,10.47
2019-03-16T03:36:08.721Z,10.46
2019-03-16T03:37:08.752Z,10.45
2019-03-16T03:38:08.685Z,10.45
2019-03-16T03:39:08.810Z,10.46
2019-03-16T03:40:08.720Z,10.46
2019-03-16T03:41:08.680Z,10.46
2019-03-16T03:42:08.806Z,10.46
2019-03-16T03:43:08.734Z,10.47
2019-03-16T03:44:08.697Z,10.46
2019-03-16T03:45:08.723Z,10.45
2019-03-16T03:46:08.746Z,10.45
2019-03-16T03:47:08.874Z,10.44
2019-03-16T03:48:08.674Z,10.45
2019-03-16T03:49:08.766Z,10.45
2019-03-16T03:50:08.695Z,10.43
2019-03-16T03:51:08.682Z,10.45
2019-03-16T03:52:08.742Z,10.42
2019-03-16T03:53:08.701Z,10.46
2019-03-16T03:54:09.183Z,10.45
2019-03-16T03:55:09.066Z,10.42
2019-03-16T03:56:08.731Z,10.42
2019-03-16T03:57:08.758Z,10.43
2019-03-16T03:58:09.563Z,10.45
2019-03-16T03:59:09.101Z,10.45
2019-03-16T04:00:08.706Z,10.41
2019-03-16T04:01:08.697Z,10.45
2019-03-16T04:02:09.137Z,10.43
2019-03-16T04:03:08.709Z,10.42
2019-03-16T04:04:16.580Z,10.44
2019-03-16T04:05:08.681Z,10.43
2019-03-16T04:06:08.683Z,10.44
2019-03-16T04:07:08.748Z,10.43
2019-03-16T04:08:08.756Z,10.42
2019-03-16T04:09:08.719Z,10.43
2019-03-16T04:10:08.682Z,10.44
2019-03-16T04:11:08.751Z,10.45
2019-03-16T04:12:08.706Z,10.44
2019-03-16T04:13:08.675Z,10.44
2019-03-16T04:14:08.814Z,10.42
2019-03-16T04:15:08.718Z,10.44
2019-03-16T04:16:08.743Z,10.42
2019-03-16T04:17:08.736Z,10.41
2019-03-16T04:18:08.803Z,10.43
2019-03-16T04:19:08.704Z,10.42
2019-03-16T04:20:08.934Z,10.44
2019-03-16T04:21:08.756Z,10.41
2019-03-16T04:22:08.669Z,10.42
2019-03-16T04:23:08.722Z,10.44
2019-03-16T04:24:08.683Z,10.41
2019-03-16T04:25:08.801Z,10.44
2019-03-16T04:26:08.689Z,10.42
2019-03-16T04:27:17.290Z,10.42
2019-03-16T04:28:08.739Z,10.44
2019-03-16T04:29:08.688Z,10.42
2019-03-16T04:30:08.734Z,10.44
2019-03-16T04:31:08.674Z,10.44
2019-03-16T04:32:08.650Z,10.41
2019-03-16T04:33:08.759Z,10.42
2019-03-16T04:34:08.648Z,10.42
2019-03-16T04:35:08.693Z,10.44
2019-03-16T04:36:08.837Z,10.44
2019-03-16T04:37:08.644Z,10.41
2019-03-16T04:38:08.624Z,10.41
2019-03-16T04:39:08.631Z,10.41
2019-03-16T04:40:08.613Z,10.42
2019-03-16T04:41:08.696Z,10.43
2019-03-16T04:42:08.683Z,10.42
2019-03-16T04:43:08.659Z,10.46
2019-03-16T04:44:08.612Z,10.45
2019-03-16T04:45:08.612Z,10.46
2019-03-16T04:46:08.778Z,10.47
2019-03-16T04:47:08.631Z,10.48
2019-03-16T04:48:08.617Z,10.47
2019-03-16T04:49:08.611Z,10.48
2019-03-16T04:50:08.731Z,10.48
2019-03-16T04:51:08.700Z,10.51
2019-03-16T04:52:08.621Z,10.49
2019-03-16T04:53:08.621Z,10.49
2019-03-16T04:54:08.587Z,10.52
2019-03-16T04:55:08.655Z,10.52
2019-03-16T04:56:08.760Z,10.5
2019-03-16T04:57:08.619Z,10.52
2019-03-16T04:58:08.612Z,10.52
2019-03-16T04:59:08.616Z,10.53
2019-03-16T05:00:08.704Z,10.52
2019-03-16T05:01:08.801Z,10.53
2019-03-16T05:02:08.589Z,10.53
2019-03-16T05:03:09.035Z,10.53
2019-03-16T05:04:08.604Z,10.54
2019-03-16T05:05:08.610Z,10.55
2019-03-16T05:06:08.579Z,10.54
2019-03-16T05:07:08.626Z,10.55
2019-03-16T05:08:08.590Z,10.54
2019-03-16T05:09:08.572Z,10.54
2019-03-16T05:10:08.606Z,10.57
2019-03-16T05:11:08.581Z,10.55
2019-03-16T05:12:08.616Z,10.57
2019-03-16T05:13:08.574Z,10.59
2019-03-16T05:14:08.597Z,10.6
2019-03-16T05:15:08.592Z,10.59
2019-03-16T05:16:08.568Z,10.58
2019-03-16T05:17:08.682Z,10.58
2019-03-16T05:18:08.596Z,10.58
2019-03-16T05:19:08.559Z,10.58
2019-03-16T05:20:08.554Z,10.59
2019-03-16T05:21:08.551Z,10.58
2019-03-16T05:22:08.586Z,10.58
2019-03-16T05:23:08.565Z,10.59
2019-03-16T05:24:08.614Z,10.59
2019-03-16T05:25:08.731Z,10.59
2019-03-16T05:26:08.562Z,10.59
2019-03-16T05:27:08.566Z,10.64
2019-03-16T05:28:08.582Z,10.63
2019-03-16T05:29:08.565Z,10.6
2019-03-16T05:30:08.586Z,10.62
2019-03-16T05:31:08.702Z,10.6
2019-03-16T05:32:08.574Z,10.59
2019-03-16T05:33:08.607Z,10.61
2019-03-16T05:34:08.587Z,10.6
2019-03-16T05:35:08.603Z,10.59
2019-03-16T05:36:08.660Z,10.59
2019-03-16T05:37:08.578Z,10.59
2019-03-16T05:38:08.554Z,10.59
2019-03-16T05:39:08.563Z,10.6
2019-03-16T05:40:08.554Z,10.6
2019-03-16T05:41:08.556Z,10.64
2019-03-16T05:42:08.566Z,10.63
2019-03-16T05:43:08.571Z,10.62
2019-03-16T05:44:08.567Z,10.61
2019-03-16T05:45:08.549Z,10.64
2019-03-16T05:46:08.552Z,10.66
2019-03-16T05:47:08.556Z,10.66
2019-03-16T05:48:08.558Z,10.65
2019-03-16T05:49:08.734Z,10.66
2019-03-16T05:50:08.650Z,10.66
2019-03-16T05:51:08.602Z,10.69
2019-03-16T05:52:08.534Z,10.67
2019-03-16T05:53:08.567Z,10.67
2019-03-16T05:54:08.557Z,10.67
2019-03-16T05:55:08.545Z,10.66
2019-03-16T05:56:08.563Z,10.65
2019-03-16T05:57:08.525Z,10.66
2019-03-16T05:58:08.552Z,10.66
2019-03-16T05:59:08.521Z,10.69
2019-03-16T06:00:10.434Z,10.66
2019-03-16T06:01:08.520Z,10.7
2019-03-16T06:02:08.531Z,10.67
2019-03-16T06:03:08.542Z,10.7
2019-03-16T06:04:08.520Z,10.7
2019-03-16T06:05:11.884Z,10.7
2019-03-16T06:06:08.542Z,10.72
2019-03-16T06:07:08.609Z,10.73
2019-03-16T06:08:09.428Z,10.73
2019-03-16T06:09:08.519Z,10.75
2019-03-16T06:10:08.511Z,10.73
2019-03-16T06:11:08.540Z,10.72
2019-03-16T06:12:08.525Z,10.73
2019-03-16T06:13:08.541Z,10.73
2019-03-16T06:14:08.496Z,10.75
2019-03-16T06:15:08.486Z,10.74
2019-03-16T06:16:08.512Z,10.74
2019-03-16T06:17:08.492Z,10.73
2019-03-16T06:18:08.499Z,10.73
2019-03-16T06:19:08.526Z,10.75
2019-03-16T06:20:08.515Z,10.73
2019-03-16T06:21:08.500Z,10.71
2019-03-16T06:22:08.511Z,10.71
2019-03-16T06:23:08.521Z,10.71
2019-03-16T06:24:08.632Z,10.72
2019-03-16T06:25:08.538Z,10.73
2019-03-16T06:26:08.585Z,10.73
2019-03-16T06:27:08.496Z,10.76
2019-03-16T06:28:08.531Z,10.76
2019-03-16T06:29:08.500Z,10.77
2019-03-16T06:30:08.593Z,10.76
2019-03-16T06:31:08.499Z,10.76
2019-03-16T06:32:08.608Z,10.76
2019-03-16T06:33:08.526Z,10.78
2019-03-16T06:34:08.637Z,10.78
2019-03-16T06:35:08.465Z,10.79
2019-03-16T06:36:08.514Z,10.79
2019-03-16T06:37:08.487Z,10.79
2019-03-16T06:38:08.472Z,10.8
2019-03-16T06:39:08.469Z,10.79
2019-03-16T06:40:08.484Z,10.81
2019-03-16T06:41:08.469Z,10.84
2019-03-16T06:42:08.483Z,10.83
2019-03-16T06:43:08.459Z,10.82
2019-03-16T06:44:08.602Z,10.84
2019-03-16T06:45:08.483Z,10.85
2019-03-16T06:46:08.471Z,10.85
2019-03-16T06:47:08.466Z,10.86
2019-03-16T06:48:08.471Z,10.88
2019-03-16T06:49:08.463Z,10.86
2019-03-16T06:50:08.990Z,10.86
2019-03-16T06:51:08.777Z,10.87
2019-03-16T06:52:08.465Z,10.9
2019-03-16T06:53:08.582Z,10.93
2019-03-16T06:54:08.448Z,10.92
2019-03-16T06:55:08.468Z,10.91
2019-03-16T06:56:08.454Z,10.91
2019-03-16T06:57:08.450Z,10.91
2019-03-16T06:58:08.453Z,10.91
2019-03-16T06:59:08.436Z,10.93
2019-03-16T07:00:08.570Z,10.96
2019-03-16T07:01:08.474Z,10.98
2019-03-16T07:02:08.429Z,11.01
2019-03-16T07:03:08.442Z,11.04
2019-03-16T07:04:08.486Z,11.04
2019-03-16T07:05:08.437Z,11.03
2019-03-16T07:06:08.424Z,11.03
2019-03-16T07:07:08.423Z,11.05
2019-03-16T07:08:08.438Z,11.03
2019-03-16T07:09:08.439Z,11.05
2019-03-16T07:10:08.481Z,11.05
2019-03-16T07:11:08.430Z,11.04
2019-03-16T07:12:08.831Z,11.09
2019-03-16T07:13:08.436Z,11.09
2019-03-16T07:14:08.447Z,11.08
2019-03-16T07:15:08.455Z,11.07
2019-03-16T07:16:08.419Z,11.04
2019-03-16T07:17:08.427Z,11.08
2019-03-16T07:18:08.557Z,11.09
2019-03-16T07:19:08.448Z,11.07
2019-03-16T07:20:08.427Z,11.09
2019-03-16T07:21:08.432Z,11.1
2019-03-16T07:22:08.422Z,11.13
2019-03-16T07:23:08.758Z,11.1
2019-03-16T07:24:08.423Z,11.1
2019-03-16T07:25:08.434Z,11.13
2019-03-16T07:26:15.636Z,11.1
2019-03-16T07:27:08.426Z,11.13
2019-03-16T07:28:08.432Z,11.1
2019-03-16T07:29:08.393Z,11.1
2019-03-16T07:30:08.437Z,11.12
2019-03-16T07:31:08.425Z,11.13
2019-03-16T07:32:08.398Z,11.11
2019-03-16T07:33:08.604Z,11.12
2019-03-16T07:34:08.860Z,11.12
2019-03-16T07:35:08.413Z,11.09
2019-03-16T07:36:08.428Z,11.13
2019-03-16T07:37:08.381Z,11.15
2019-03-16T07:38:08.553Z,11.15
2019-03-16T07:39:08.507Z,11.15
2019-03-16T07:40:08.430Z,11.15
2019-03-16T07:41:08.511Z,11.17
2019-03-16T07:42:08.424Z,11.16
2019-03-16T07:43:08.393Z,11.16
2019-03-16T07:44:08.389Z,11.16
2019-03-16T07:45:09.562Z,11.16
2019-03-16T07:46:08.533Z,11.15
2019-03-16T07:47:08.396Z,11.14
2019-03-16T07:48:08.381Z,11.14
2019-03-16T07:49:08.417Z,11.15
2019-03-16T07:50:08.397Z,11.14
2019-03-16T07:51:08.381Z,11.14
2019-03-16T07:52:08.552Z,11.11
2019-03-16T07:53:08.462Z,11.13
2019-03-16T07:54:08.393Z,11.09
2019-03-16T07:55:08.428Z,11.08
2019-03-16T07:56:08.384Z,11.09
2019-03-16T07:57:08.441Z,11.08
2019-03-16T07:58:08.422Z,11.06
2019-03-16T07:59:08.373Z,11.07
2019-03-16T08:00:08.485Z,11.07
2019-03-16T08:01:08.392Z,11.07
2019-03-16T08:02:08.387Z,11.07
2019-03-16T08:03:08.411Z,11.06
2019-03-16T08:04:08.411Z,11.07
2019-03-16T08:05:19.662Z,11.05
2019-03-16T08:06:08.462Z,11.04
2019-03-16T08:07:08.342Z,11.04
2019-03-16T08:08:08.366Z,11.02
2019-03-16T08:09:08.669Z,11.02
2019-03-16T08:10:08.357Z,11.02
2019-03-16T08:11:08.360Z,11.02
2019-03-16T08:12:08.344Z,11.01
2019-03-16T08:13:08.364Z,11.02
2019-03-16T08:14:08.505Z,11
2019-03-16T08:15:08.423Z,10.97
2019-03-16T08:16:08.635Z,10.97
2019-03-16T08:17:08.836Z,10.96
2019-03-16T08:18:08.482Z,10.96
2019-03-16T08:19:08.419Z,10.97
2019-03-16T08:20:08.360Z,10.96
2019-03-16T08:21:08.495Z,10.96
2019-03-16T08:22:08.346Z,10.95
2019-03-16T08:23:08.373Z,10.95
2019-03-16T08:24:08.357Z,10.94
2019-03-16T08:25:08.342Z,10.94
2019-03-16T08:26:08.327Z,10.92
2019-03-16T08:27:08.333Z,10.95
2019-03-16T08:28:08.334Z,10.95
2019-03-16T08:29:08.361Z,10.96
2019-03-16T08:30:08.335Z,10.96
2019-03-16T08:31:08.369Z,10.96
2019-03-16T08:32:08.311Z,10.95
2019-03-16T08:33:08.318Z,10.95
2019-03-16T08:34:08.317Z,10.95
2019-03-16T08:35:08.302Z,10.94
2019-03-16T08:36:08.372Z,10.94
2019-03-16T08:37:08.346Z,10.91
2019-03-16T08:38:08.360Z,10.95
2019-03-16T08:39:08.479Z,10.94
2019-03-16T08:40:08.332Z,10.93
2019-03-16T08:41:08.473Z,10.93
2019-03-16T08:42:08.405Z,10.89
2019-03-16T08:43:08.360Z,10.89
2019-03-16T08:44:08.331Z,10.88
2019-03-16T08:45:08.354Z,10.86
2019-03-16T08:46:08.324Z,10.88
2019-03-16T08:47:08.301Z,10.83
2019-03-16T08:48:08.323Z,10.83
2019-03-16T08:49:08.300Z,10.82
2019-03-16T08:50:08.353Z,10.79
2019-03-16T08:51:08.522Z,10.77
2019-03-16T08:52:08.292Z,10.77
2019-03-16T08:53:08.329Z,10.77
2019-03-16T08:54:08.304Z,10.75
2019-03-16T08:55:08.305Z,10.72
2019-03-16T08:56:08.364Z,10.72
2019-03-16T08:57:08.283Z,10.69
2019-03-16T08:58:08.377Z,10.71
2019-03-16T08:59:08.318Z,10.69
2019-03-16T09:00:08.339Z,10.67
2019-03-16T09:01:08.277Z,10.66
2019-03-16T09:02:08.283Z,10.67
2019-03-16T09:03:08.271Z,10.66
2019-03-16T09:04:08.287Z,10.67
2019-03-16T09:05:08.303Z,10.64
2019-03-16T09:06:08.265Z,10.61
2019-03-16T09:07:08.264Z,10.63
2019-03-16T09:08:08.351Z,10.6
2019-03-16T09:09:08.323Z,10.61
2019-03-16T09:10:08.290Z,10.58
2019-03-16T09:11:08.278Z,10.58
2019-03-16T09:12:08.270Z,10.58
2019-03-16T09:13:08.271Z,10.58
2019-03-16T09:14:08.277Z,10.56
2019-03-16T09:15:08.315Z,10.59
2019-03-16T09:16:08.326Z,10.6
2019-03-16T09:17:09.638Z,10.61
2019-03-16T09:18:08.349Z,10.63
2019-03-16T09:19:08.268Z,10.64
2019-03-16T09:20:08.382Z,10.64
2019-03-16T09:21:08.269Z,10.64
2019-03-16T09:22:09.799Z,10.65
2019-03-16T09:23:08.341Z,10.66
2019-03-16T09:24:08.382Z,10.65
2019-03-16T09:25:08.441Z,10.67
2019-03-16T09:26:08.429Z,10.68
2019-03-16T09:27:08.378Z,10.72
2019-03-16T09:28:19.412Z,10.72
2019-03-16T09:29:15.682Z,10.73
2019-03-16T09:30:08.292Z,10.76
2019-03-16T09:31:08.293Z,10.74
2019-03-16T09:32:08.294Z,10.77
2019-03-16T09:33:08.914Z,10.78
2019-03-16T09:34:08.252Z,10.78
2019-03-16T09:35:08.386Z,10.8
2019-03-16T09:36:08.258Z,10.79
2019-03-16T09:37:08.316Z,10.78
2019-03-16T09:38:08.244Z,10.79
2019-03-16T09:39:08.229Z,10.8
2019-03-16T09:40:08.230Z,10.79
2019-03-16T09:41:08.214Z,10.84
2019-03-16T09:42:08.242Z,10.83
2019-03-16T09:43:08.278Z,10.84
2019-03-16T09:44:08.272Z,10.85
2019-03-16T09:45:08.324Z,10.86
2019-03-16T09:46:08.233Z,10.89
2019-03-16T09:47:08.226Z,10.9
2019-03-16T09:48:08.229Z,10.94
2019-03-16T09:49:08.216Z,10.96
2019-03-16T09:50:08.207Z,10.99
2019-03-16T09:51:08.206Z,11.05
2019-03-16T09:52:08.309Z,11.06
2019-03-16T09:53:08.215Z,11.14
2019-03-16T09:54:08.221Z,11.17
2019-03-16T09:55:08.277Z,11.21
2019-03-16T09:56:08.231Z,11.24
2019-03-16T09:57:08.226Z,11.28
2019-03-16T09:58:08.301Z,11.29
2019-03-16T09:59:08.198Z,11.32
2019-03-16T10:00:08.227Z,11.33
2019-03-16T10:01:08.218Z,11.35
2019-03-16T10:02:08.229Z,11.39
2019-03-16T10:03:08.206Z,11.43
2019-03-16T10:04:08.281Z,11.49
2019-03-16T10:05:08.535Z,11.52
2019-03-16T10:06:08.192Z,11.58
2019-03-16T10:07:08.278Z,11.64
2019-03-16T10:08:08.187Z,11.72
2019-03-16T10:09:08.221Z,11.81
2019-03-16T10:10:08.249Z,11.84
2019-03-16T10:11:08.184Z,11.94
2019-03-16T10:12:08.197Z,12.04
2019-03-16T10:13:08.208Z,12.09
2019-03-16T10:14:08.175Z,12.15
2019-03-16T10:15:08.219Z,12.17
2019-03-16T10:16:08.181Z,12.21
2019-03-16T10:17:08.248Z,12.19
2019-03-16T10:18:08.157Z,12.13
2019-03-16T10:19:08.180Z,12.11
2019-03-16T10:20:08.190Z,12.11
2019-03-16T10:21:08.198Z,12.08
2019-03-16T10:22:08.212Z,12.06
2019-03-16T10:23:08.161Z,12.06
2019-03-16T10:24:08.188Z,12
2019-03-16T10:25:08.152Z,11.94
2019-03-16T10:26:08.379Z,11.94
2019-03-16T10:27:08.690Z,11.92
2019-03-16T10:28:08.201Z,11.93
2019-03-16T10:29:08.175Z,11.9
2019-03-16T10:30:08.225Z,11.89
2019-03-16T10:31:08.263Z,11.88
2019-03-16T10:32:08.169Z,11.88
2019-03-16T10:33:11.634Z,11.87
2019-03-16T10:34:08.164Z,11.84
2019-03-16T10:35:10.018Z,11.86
2019-03-16T10:36:08.214Z,11.84
2019-03-16T10:37:08.195Z,11.87
2019-03-16T10:38:08.168Z,11.88
2019-03-16T10:39:08.166Z,11.87
2019-03-16T10:40:08.175Z,11.88
2019-03-16T10:41:08.162Z,11.89
2019-03-16T10:42:08.217Z,11.9
2019-03-16T10:43:08.156Z,11.9
2019-03-16T10:44:08.230Z,11.93
2019-03-16T10:45:08.133Z,11.91
2019-03-16T10:46:08.885Z,11.93
2019-03-16T10:47:08.220Z,11.93
2019-03-16T10:48:08.219Z,11.97
2019-03-16T10:49:08.291Z,12.02
2019-03-16T10:50:08.175Z,12.06
2019-03-16T10:51:08.147Z,12.1
2019-03-16T10:52:08.124Z,12.12
2019-03-16T10:53:08.174Z,12.16
2019-03-16T10:54:08.138Z,12.19
2019-03-16T10:55:08.153Z,12.22
2019-03-16T10:56:08.200Z,12.27
2019-03-16T10:57:08.185Z,12.3
2019-03-16T10:58:08.169Z,12.32
2019-03-16T10:59:08.155Z,12.33
2019-03-16T11:00:08.148Z,12.34
2019-03-16T11:01:08.178Z,12.34
2019-03-16T11:02:08.192Z,12.37
2019-03-16T11:03:08.174Z,12.36
2019-03-16T11:04:08.197Z,12.32
2019-03-16T11:05:08.143Z,12.36
2019-03-16T11:06:08.264Z,12.39
2019-03-16T11:07:08.122Z,12.39
2019-03-16T11:08:08.139Z,12.41
2019-03-16T11:09:08.359Z,12.4
2019-03-16T11:10:08.176Z,12.44
2019-03-16T11:11:07.934Z,12.5
2019-03-16T11:12:08.149Z,12.56
2019-03-16T11:13:08.121Z,12.61
2019-03-16T11:14:08.113Z,12.57
2019-03-16T11:15:08.128Z,12.6
2019-03-16T11:16:08.119Z,12.6
2019-03-16T11:17:08.138Z,12.61
2019-03-16T11:18:08.113Z,12.58
2019-03-16T11:19:08.122Z,12.57
2019-03-16T11:20:08.112Z,12.57
2019-03-16T11:21:08.115Z,12.57
2019-03-16T11:22:08.158Z,12.56
2019-03-16T11:23:08.102Z,12.58
2019-03-16T11:24:08.122Z,12.59
2019-03-16T11:25:08.133Z,12.49
2019-03-16T11:26:08.076Z,12.49
2019-03-16T11:27:08.161Z,12.48
2019-03-16T11:28:08.198Z,12.42
2019-03-16T11:29:09.787Z,12.41
2019-03-16T11:30:08.620Z,12.37
2019-03-16T11:31:08.165Z,12.29
2019-03-16T11:32:08.145Z,12.26
2019-03-16T11:33:08.122Z,12.2
2019-03-16T11:34:08.088Z,12.17
2019-03-16T11:35:08.107Z,12.12
2019-03-16T11:36:08.255Z,12.12
2019-03-16T11:37:08.177Z,12.06
2019-03-16T11:38:08.224Z,12.05
2019-03-16T11:39:08.112Z,12.01
2019-03-16T11:40:08.172Z,12.01
2019-03-16T11:41:08.140Z,12.07
2019-03-16T11:42:08.133Z,12.11
2019-03-16T11:43:08.081Z,12.12
2019-03-16T11:44:08.135Z,12.11
2019-03-16T11:45:09.236Z,12.15
2019-03-16T11:46:08.065Z,12.14
2019-03-16T11:47:08.059Z,12.11
2019-03-16T11:48:08.075Z,12.1
2019-03-16T11:49:08.072Z,12.06
2019-03-16T11:50:08.074Z,12.03
2019-03-16T11:51:08.103Z,12.08
2019-03-16T11:52:08.104Z,12.09
2019-03-16T11:53:08.989Z,12.12
2019-03-16T11:54:08.082Z,12.16
2019-03-16T11:55:08.141Z,12.22
2019-03-16T11:56:18.781Z,12.21
2019-03-16T11:57:08.046Z,12.2
2019-03-16T11:58:08.087Z,12.17
2019-03-16T11:59:12.400Z,12.17
2019-03-16T12:00:08.096Z,12.22
2019-03-16T12:01:08.111Z,12.33
2019-03-16T12:02:08.036Z,12.36
2019-03-16T12:03:08.058Z,12.45
2019-03-16T12:04:08.156Z,12.47
2019-03-16T12:05:08.072Z,12.5
2019-03-16T12:06:08.086Z,12.5
2019-03-16T12:07:08.068Z,12.51
2019-03-16T12:08:08.039Z,12.5
2019-03-16T12:09:08.039Z,12.51
2019-03-16T12:10:08.024Z,12.51
2019-03-16T12:11:08.062Z,12.5
2019-03-16T12:12:08.125Z,12.48
2019-03-16T12:13:20.436Z,12.37
2019-03-16T12:14:08.133Z,12.34
2019-03-16T12:15:08.019Z,12.25
2019-03-16T12:16:08.165Z,12.25
2019-03-16T12:17:08.069Z,12.22
2019-03-16T12:18:08.056Z,12.25
2019-03-16T12:19:08.021Z,12.24
2019-03-16T12:20:08.041Z,12.23
2019-03-16T12:21:08.106Z,12.2
2019-03-16T12:22:08.049Z,12.2
2019-03-16T12:23:08.019Z,12.23
2019-03-16T12:24:08.022Z,12.19
2019-03-16T12:25:08.098Z,12.2
2019-03-16T12:26:08.067Z,12.19
2019-03-16T12:27:08.157Z,12.15
2019-03-16T12:28:08.009Z,12.12
2019-03-16T12:29:08.096Z,12.11
2019-03-16T12:30:08.020Z,12.13
2019-03-16T12:31:08.033Z,12.1
2019-03-16T12:32:08.094Z,12.13
2019-03-16T12:33:08.085Z,12.14
2019-03-16T12:34:08.062Z,12.12
2019-03-16T12:35:08.129Z,12.13
2019-03-16T12:36:08.242Z,12.13
2019-03-16T12:37:08.040Z,12.07
2019-03-16T12:38:08.151Z,12.06
2019-03-16T12:39:08.070Z,12.03
2019-03-16T12:40:08.080Z,12.02
2019-03-16T12:41:08.189Z,12.04
2019-03-16T12:42:08.045Z,12.02
2019-03-16T12:43:08.034Z,11.99
2019-03-16T12:44:08.048Z,11.99
2019-03-16T12:45:08.028Z,11.99
2019-03-16T12:46:08.007Z,11.99
2019-03-16T12:47:08.073Z,11.99
2019-03-16T12:48:08.020Z,12.01
2019-03-16T12:49:08.047Z,11.99
2019-03-16T12:50:08.238Z,11.98
2019-03-16T12:51:07.978Z,12.02
2019-03-16T12:52:07.959Z,12.07
2019-03-16T12:53:08.205Z,12.15
2019-03-16T12:54:07.972Z,12.22